Aspen, Colorado
Current Conditions -  °F | °C
As of 5:53 AM on Wednesday 22 Oct 2014 (Local Time) from KASE Reporting Station
Light Rain Light Rain  
Wind Chill:   Ceiling: 3500
Heat Index:   Visibility: 10mi
Dew Point:   Wind: 7mph
Humidity: 93%   Direction: 190°S
Pressure: 30.21"   Gusts: NA
Location:  39.19°N, 106.81°W
Report Text: KASE 221153Z AUTO 19006KT 10SM -RA FEW012 BKN035 OVC070 03/02 A3021 RMK AO2 RAE18B47 SLP170 P0001 60024 70046 T00330022 10050 20028 50002
Loading
Personal Weather Stations






























Interactive Weather Map
Tropical Storm Tracking
New forecast layout! Learn more

10-Day Weather Forecast

Advertisements
Track Severe Weather on mobile